sensor_id;sensor_type;location;lat;lon;timestamp;P1;durP1;ratioP1;P2;durP2;ratioP2
59970;SDS011;45825;45.434;9.116;2023-09-18T00:00:22;11.30;;;9.05;;
59970;SDS011;45825;45.434;9.116;2023-09-18T00:02:48;13.20;;;10.00;;
59970;SDS011;45825;45.434;9.116;2023-09-18T00:05:13;13.07;;;10.15;;
59970;SDS011;45825;45.434;9.116;2023-09-18T00:07:43;12.90;;;9.60;;
59970;SDS011;45825;45.434;9.116;2023-09-18T00:10:11;12.27;;;9.88;;
59970;SDS011;45825;45.434;9.116;2023-09-18T00:12:37;13.20;;;9.73;;
59970;SDS011;45825;45.434;9.116;2023-09-18T00:15:02;12.73;;;10.20;;
59970;SDS011;45825;45.434;9.116;2023-09-18T00:17:29;13.65;;;9.93;;
59970;SDS011;45825;45.434;9.116;2023-09-18T00:19:54;13.05;;;9.27;;
59970;SDS011;45825;45.434;9.116;2023-09-18T00:22:19;12.30;;;10.02;;
59970;SDS011;45825;45.434;9.116;2023-09-18T00:24:45;12.20;;;9.60;;
59970;SDS011;45825;45.434;9.116;2023-09-18T00:27:11;11.13;;;8.63;;
59970;SDS011;45825;45.434;9.116;2023-09-18T00:29:36;13.23;;;9.63;;
59970;SDS011;45825;45.434;9.116;2023-09-18T00:32:02;11.90;;;9.50;;
59970;SDS011;45825;45.434;9.116;2023-09-18T00:34:29;12.85;;;10.38;;
59970;SDS011;45825;45.434;9.116;2023-09-18T00:36:56;13.02;;;9.95;;
59970;SDS011;45825;45.434;9.116;2023-09-18T00:39:22;14.55;;;10.25;;
59970;SDS011;45825;45.434;9.116;2023-09-18T00:41:47;14.40;;;9.95;;
59970;SDS011;45825;45.434;9.116;2023-09-18T00:44:16;12.88;;;10.50;;
59970;SDS011;45825;45.434;9.116;2023-09-18T00:46:41;17.67;;;10.70;;
59970;SDS011;45825;45.434;9.116;2023-09-18T00:49:08;13.10;;;10.30;;
59970;SDS011;45825;45.434;9.116;2023-09-18T00:51:34;13.93;;;10.10;;
59970;SDS011;45825;45.434;9.116;2023-09-18T00:53:59;13.50;;;9.93;;
59970;SDS011;45825;45.434;9.116;2023-09-18T00:56:25;12.57;;;9.98;;
59970;SDS011;45825;45.434;9.116;2023-09-18T00:58:50;12.60;;;9.57;;
59970;SDS011;45825;45.434;9.116;2023-09-18T01:01:17;12.20;;;9.48;;
59970;SDS011;45825;45.434;9.116;2023-09-18T01:03:47;15.40;;;9.82;;
59970;SDS011;45825;45.434;9.116;2023-09-18T01:06:14;13.30;;;9.70;;
59970;SDS011;45825;45.434;9.116;2023-09-18T01:08:40;11.50;;;10.25;;
59970;SDS011;45825;45.434;9.116;2023-09-18T01:11:19;12.05;;;9.63;;
59970;SDS011;45825;45.434;9.116;2023-09-18T01:16:53;12.43;;;9.35;;
59970;SDS011;45825;45.434;9.116;2023-09-18T01:22:18;14.13;;;10.23;;
59970;SDS011;45825;45.434;9.116;2023-09-18T01:24:45;13.05;;;10.23;;
59970;SDS011;45825;45.434;9.116;2023-09-18T01:27:15;13.02;;;10.27;;
59970;SDS011;45825;45.434;9.116;2023-09-18T01:29:42;11.93;;;10.50;;
59970;SDS011;45825;45.434;9.116;2023-09-18T01:32:10;14.10;;;10.35;;
59970;SDS011;45825;45.434;9.116;2023-09-18T01:34:47;15.60;;;10.43;;
59970;SDS011;45825;45.434;9.116;2023-09-18T01:37:14;13.55;;;10.60;;
59970;SDS011;45825;45.434;9.116;2023-09-18T01:39:41;12.90;;;10.68;;
59970;SDS011;45825;45.434;9.116;2023-09-18T01:42:07;13.43;;;10.43;;
59970;SDS011;45825;45.434;9.116;2023-09-18T01:44:36;12.55;;;10.07;;
59970;SDS011;45825;45.434;9.116;2023-09-18T01:47:06;14.10;;;9.75;;
59970;SDS011;45825;45.434;9.116;2023-09-18T01:49:34;17.27;;;10.20;;
59970;SDS011;45825;45.434;9.116;2023-09-18T01:52:01;12.30;;;9.68;;
59970;SDS011;45825;45.434;9.116;2023-09-18T01:54:27;13.48;;;10.15;;
59970;SDS011;45825;45.434;9.116;2023-09-18T01:56:53;13.00;;;10.80;;
59970;SDS011;45825;45.434;9.116;2023-09-18T01:59:19;12.05;;;10.50;;
59970;SDS011;45825;45.434;9.116;2023-09-18T02:01:44;13.75;;;10.82;;
59970;SDS011;45825;45.434;9.116;2023-09-18T02:04:10;14.00;;;11.38;;
59970;SDS011;45825;45.434;9.116;2023-09-18T02:06:37;13.90;;;11.45;;
59970;SDS011;45825;45.434;9.116;2023-09-18T02:09:02;15.05;;;10.55;;
59970;SDS011;45825;45.434;9.116;2023-09-18T02:11:28;16.00;;;11.82;;
59970;SDS011;45825;45.434;9.116;2023-09-18T02:13:54;15.60;;;11.80;;
59970;SDS011;45825;45.434;9.116;2023-09-18T02:16:19;15.77;;;11.65;;
59970;SDS011;45825;45.434;9.116;2023-09-18T02:18:48;14.18;;;11.60;;
59970;SDS011;45825;45.434;9.116;2023-09-18T02:21:20;13.65;;;11.73;;
59970;SDS011;45825;45.434;9.116;2023-09-18T02:23:48;17.15;;;12.93;;
59970;SDS011;45825;45.434;9.116;2023-09-18T02:26:15;15.35;;;13.35;;
59970;SDS011;45825;45.434;9.116;2023-09-18T02:28:40;16.25;;;13.07;;
59970;SDS011;45825;45.434;9.116;2023-09-18T02:31:05;17.92;;;12.65;;
59970;SDS011;45825;45.434;9.116;2023-09-18T02:33:30;18.20;;;13.40;;
59970;SDS011;45825;45.434;9.116;2023-09-18T02:35:56;18.15;;;13.73;;
59970;SDS011;45825;45.434;9.116;2023-09-18T02:38:22;18.00;;;14.05;;
59970;SDS011;45825;45.434;9.116;2023-09-18T02:40:47;19.95;;;14.52;;
59970;SDS011;45825;45.434;9.116;2023-09-18T02:43:12;17.65;;;14.40;;
59970;SDS011;45825;45.434;9.116;2023-09-18T02:45:39;16.73;;;14.52;;
59970;SDS011;45825;45.434;9.116;2023-09-18T02:48:04;16.92;;;14.25;;
59970;SDS011;45825;45.434;9.116;2023-09-18T02:50:30;18.27;;;14.63;;
59970;SDS011;45825;45.434;9.116;2023-09-18T02:52:55;17.50;;;14.20;;
59970;SDS011;45825;45.434;9.116;2023-09-18T02:55:20;19.00;;;14.63;;
59970;SDS011;45825;45.434;9.116;2023-09-18T02:57:46;20.10;;;16.38;;
59970;SDS011;45825;45.434;9.116;2023-09-18T03:00:11;18.67;;;15.15;;
59970;SDS011;45825;45.434;9.116;2023-09-18T03:02:37;19.88;;;14.93;;
59970;SDS011;45825;45.434;9.116;2023-09-18T03:05:02;22.25;;;16.58;;
59970;SDS011;45825;45.434;9.116;2023-09-18T03:07:29;21.40;;;16.77;;
59970;SDS011;45825;45.434;9.116;2023-09-18T03:09:55;20.73;;;16.50;;
59970;SDS011;45825;45.434;9.116;2023-09-18T03:12:20;20.20;;;17.30;;
59970;SDS011;45825;45.434;9.116;2023-09-18T03:14:47;24.42;;;17.02;;
59970;SDS011;45825;45.434;9.116;2023-09-18T03:17:12;21.65;;;16.75;;
59970;SDS011;45825;45.434;9.116;2023-09-18T03:19:38;20.40;;;16.85;;
59970;SDS011;45825;45.434;9.116;2023-09-18T03:22:03;20.98;;;17.13;;
59970;SDS011;45825;45.434;9.116;2023-09-18T03:24:29;22.88;;;16.27;;
59970;SDS011;45825;45.434;9.116;2023-09-18T03:26:54;19.40;;;16.30;;
59970;SDS011;45825;45.434;9.116;2023-09-18T03:29:19;23.83;;;17.60;;
59970;SDS011;45825;45.434;9.116;2023-09-18T03:31:44;23.83;;;17.25;;
59970;SDS011;45825;45.434;9.116;2023-09-18T03:34:10;21.42;;;16.58;;
59970;SDS011;45825;45.434;9.116;2023-09-18T03:36:35;21.42;;;17.10;;
59970;SDS011;45825;45.434;9.116;2023-09-18T03:39:02;22.48;;;16.63;;
59970;SDS011;45825;45.434;9.116;2023-09-18T03:41:29;22.05;;;17.33;;
59970;SDS011;45825;45.434;9.116;2023-09-18T03:43:58;21.90;;;17.15;;
59970;SDS011;45825;45.434;9.116;2023-09-18T03:46:24;21.83;;;16.92;;
59970;SDS011;45825;45.434;9.116;2023-09-18T03:48:49;19.95;;;17.10;;
59970;SDS011;45825;45.434;9.116;2023-09-18T03:51:15;20.25;;;16.90;;
59970;SDS011;45825;45.434;9.116;2023-09-18T03:53:40;21.77;;;16.85;;
59970;SDS011;45825;45.434;9.116;2023-09-18T03:56:06;22.35;;;17.17;;
59970;SDS011;45825;45.434;9.116;2023-09-18T03:58:32;22.27;;;17.35;;
59970;SDS011;45825;45.434;9.116;2023-09-18T04:00:57;22.02;;;18.17;;
59970;SDS011;45825;45.434;9.116;2023-09-18T04:03:22;22.67;;;16.90;;
59970;SDS011;45825;45.434;9.116;2023-09-18T04:05:47;24.67;;;17.30;;
59970;SDS011;45825;45.434;9.116;2023-09-18T04:08:13;21.27;;;17.40;;
59970;SDS011;45825;45.434;9.116;2023-09-18T04:10:38;23.88;;;17.48;;
59970;SDS011;45825;45.434;9.116;2023-09-18T04:13:04;23.15;;;17.15;;
59970;SDS011;45825;45.434;9.116;2023-09-18T04:15:29;20.52;;;17.17;;
59970;SDS011;45825;45.434;9.116;2023-09-18T04:17:57;21.52;;;17.33;;
59970;SDS011;45825;45.434;9.116;2023-09-18T04:20:23;23.13;;;17.30;;
59970;SDS011;45825;45.434;9.116;2023-09-18T04:23:16;24.88;;;16.90;;
59970;SDS011;45825;45.434;9.116;2023-09-18T04:25:43;21.08;;;16.75;;
59970;SDS011;45825;45.434;9.116;2023-09-18T04:28:09;22.42;;;16.60;;
59970;SDS011;45825;45.434;9.116;2023-09-18T04:30:34;21.75;;;18.25;;
59970;SDS011;45825;45.434;9.116;2023-09-18T04:32:59;26.17;;;17.95;;
59970;SDS011;45825;45.434;9.116;2023-09-18T04:35:25;22.85;;;19.08;;
59970;SDS011;45825;45.434;9.116;2023-09-18T04:37:55;23.13;;;19.25;;
59970;SDS011;45825;45.434;9.116;2023-09-18T04:40:21;24.45;;;18.60;;
59970;SDS011;45825;45.434;9.116;2023-09-18T04:42:46;24.98;;;18.58;;
59970;SDS011;45825;45.434;9.116;2023-09-18T04:45:11;22.67;;;18.05;;
59970;SDS011;45825;45.434;9.116;2023-09-18T04:47:36;21.92;;;17.92;;
59970;SDS011;45825;45.434;9.116;2023-09-18T04:50:02;21.80;;;17.92;;
59970;SDS011;45825;45.434;9.116;2023-09-18T04:52:30;21.05;;;17.88;;
59970;SDS011;45825;45.434;9.116;2023-09-18T04:54:55;25.27;;;19.10;;
59970;SDS011;45825;45.434;9.116;2023-09-18T04:57:22;21.95;;;17.98;;
59970;SDS011;45825;45.434;9.116;2023-09-18T04:59:47;22.27;;;18.10;;
59970;SDS011;45825;45.434;9.116;2023-09-18T05:02:13;23.55;;;18.33;;
59970;SDS011;45825;45.434;9.116;2023-09-18T05:04:38;22.92;;;17.83;;
59970;SDS011;45825;45.434;9.116;2023-09-18T05:07:03;27.10;;;18.30;;
59970;SDS011;45825;45.434;9.116;2023-09-18T05:09:29;21.67;;;17.92;;
59970;SDS011;45825;45.434;9.116;2023-09-18T05:11:55;20.77;;;17.88;;
59970;SDS011;45825;45.434;9.116;2023-09-18T05:14:20;21.75;;;18.48;;
59970;SDS011;45825;45.434;9.116;2023-09-18T05:16:45;23.13;;;18.08;;
59970;SDS011;45825;45.434;9.116;2023-09-18T05:19:10;22.38;;;19.25;;
59970;SDS011;45825;45.434;9.116;2023-09-18T05:21:37;23.23;;;19.23;;
59970;SDS011;45825;45.434;9.116;2023-09-18T05:24:02;21.73;;;18.65;;
59970;SDS011;45825;45.434;9.116;2023-09-18T05:26:29;23.52;;;19.80;;
59970;SDS011;45825;45.434;9.116;2023-09-18T05:28:55;22.20;;;18.95;;
59970;SDS011;45825;45.434;9.116;2023-09-18T05:31:20;21.50;;;17.92;;
59970;SDS011;45825;45.434;9.116;2023-09-18T05:33:46;22.52;;;18.58;;
59970;SDS011;45825;45.434;9.116;2023-09-18T05:36:12;21.77;;;16.92;;
59970;SDS011;45825;45.434;9.116;2023-09-18T05:38:39;22.67;;;17.30;;
59970;SDS011;45825;45.434;9.116;2023-09-18T05:41:04;21.40;;;16.95;;
59970;SDS011;45825;45.434;9.116;2023-09-18T05:43:30;21.73;;;18.85;;
59970;SDS011;45825;45.434;9.116;2023-09-18T05:45:55;22.40;;;18.33;;
59970;SDS011;45825;45.434;9.116;2023-09-18T05:48:21;23.67;;;17.77;;
59970;SDS011;45825;45.434;9.116;2023-09-18T05:50:46;22.02;;;16.60;;
59970;SDS011;45825;45.434;9.116;2023-09-18T05:53:12;23.38;;;17.63;;
59970;SDS011;45825;45.434;9.116;2023-09-18T05:55:38;24.30;;;16.73;;
59970;SDS011;45825;45.434;9.116;2023-09-18T05:58:03;21.50;;;16.40;;
59970;SDS011;45825;45.434;9.116;2023-09-18T06:00:29;21.92;;;17.33;;
59970;SDS011;45825;45.434;9.116;2023-09-18T06:02:55;23.70;;;18.13;;
59970;SDS011;45825;45.434;9.116;2023-09-18T06:05:21;22.52;;;17.42;;
59970;SDS011;45825;45.434;9.116;2023-09-18T06:07:49;22.88;;;18.05;;
59970;SDS011;45825;45.434;9.116;2023-09-18T06:10:15;27.10;;;19.13;;
59970;SDS011;45825;45.434;9.116;2023-09-18T06:12:41;23.10;;;18.63;;
59970;SDS011;45825;45.434;9.116;2023-09-18T06:15:07;24.48;;;18.48;;
59970;SDS011;45825;45.434;9.116;2023-09-18T06:17:39;26.98;;;19.58;;
59970;SDS011;45825;45.434;9.116;2023-09-18T06:20:05;29.40;;;19.58;;
59970;SDS011;45825;45.434;9.116;2023-09-18T06:22:35;24.58;;;19.23;;
59970;SDS011;45825;45.434;9.116;2023-09-18T06:25:04;29.88;;;20.15;;
59970;SDS011;45825;45.434;9.116;2023-09-18T06:27:33;25.52;;;19.77;;
59970;SDS011;45825;45.434;9.116;2023-09-18T06:30:00;28.92;;;20.95;;
59970;SDS011;45825;45.434;9.116;2023-09-18T06:32:25;23.45;;;18.90;;
59970;SDS011;45825;45.434;9.116;2023-09-18T06:34:50;23.27;;;19.33;;
59970;SDS011;45825;45.434;9.116;2023-09-18T06:37:16;24.60;;;20.23;;
59970;SDS011;45825;45.434;9.116;2023-09-18T06:39:43;27.23;;;20.83;;
59970;SDS011;45825;45.434;9.116;2023-09-18T06:42:08;29.77;;;20.88;;
59970;SDS011;45825;45.434;9.116;2023-09-18T06:44:34;25.17;;;20.17;;
59970;SDS011;45825;45.434;9.116;2023-09-18T06:47:00;29.02;;;22.83;;
59970;SDS011;45825;45.434;9.116;2023-09-18T06:49:26;28.33;;;24.60;;
59970;SDS011;45825;45.434;9.116;2023-09-18T06:51:52;32.85;;;25.45;;
59970;SDS011;45825;45.434;9.116;2023-09-18T06:54:17;31.52;;;27.33;;
59970;SDS011;45825;45.434;9.116;2023-09-18T06:56:43;34.58;;;27.83;;
59970;SDS011;45825;45.434;9.116;2023-09-18T06:59:09;34.00;;;28.52;;
59970;SDS011;45825;45.434;9.116;2023-09-18T07:01:35;36.15;;;28.35;;
59970;SDS011;45825;45.434;9.116;2023-09-18T07:04:00;37.08;;;31.52;;
59970;SDS011;45825;45.434;9.116;2023-09-18T07:06:26;37.20;;;30.65;;
59970;SDS011;45825;45.434;9.116;2023-09-18T07:08:51;34.40;;;29.95;;
59970;SDS011;45825;45.434;9.116;2023-09-18T07:11:18;38.25;;;32.05;;
59970;SDS011;45825;45.434;9.116;2023-09-18T07:13:43;38.42;;;34.33;;
59970;SDS011;45825;45.434;9.116;2023-09-18T07:16:09;37.25;;;31.17;;
59970;SDS011;45825;45.434;9.116;2023-09-18T07:18:35;41.88;;;35.10;;
59970;SDS011;45825;45.434;9.116;2023-09-18T07:21:00;38.97;;;32.45;;
59970;SDS011;45825;45.434;9.116;2023-09-18T07:23:26;35.75;;;31.85;;
59970;SDS011;45825;45.434;9.116;2023-09-18T07:25:51;38.75;;;32.53;;
59970;SDS011;45825;45.434;9.116;2023-09-18T07:28:17;42.33;;;34.58;;
59970;SDS011;45825;45.434;9.116;2023-09-18T07:30:44;43.42;;;37.15;;
59970;SDS011;45825;45.434;9.116;2023-09-18T07:33:10;37.00;;;32.03;;
59970;SDS011;45825;45.434;9.116;2023-09-18T07:35:37;40.88;;;33.88;;
59970;SDS011;45825;45.434;9.116;2023-09-18T07:38:03;45.25;;;37.22;;
59970;SDS011;45825;45.434;9.116;2023-09-18T07:40:29;41.88;;;34.97;;
59970;SDS011;45825;45.434;9.116;2023-09-18T07:42:54;45.47;;;37.78;;
59970;SDS011;45825;45.434;9.116;2023-09-18T07:45:19;42.47;;;36.30;;
59970;SDS011;45825;45.434;9.116;2023-09-18T07:47:45;43.65;;;36.25;;
59970;SDS011;45825;45.434;9.116;2023-09-18T07:50:10;45.95;;;37.85;;
59970;SDS011;45825;45.434;9.116;2023-09-18T07:52:35;43.72;;;37.53;;
59970;SDS011;45825;45.434;9.116;2023-09-18T07:55:01;47.75;;;39.95;;
59970;SDS011;45825;45.434;9.116;2023-09-18T07:57:27;56.67;;;43.33;;
59970;SDS011;45825;45.434;9.116;2023-09-18T07:59:57;48.53;;;41.75;;
59970;SDS011;45825;45.434;9.116;2023-09-18T08:02:23;46.03;;;38.63;;
59970;SDS011;45825;45.434;9.116;2023-09-18T08:04:48;52.47;;;41.40;;
59970;SDS011;45825;45.434;9.116;2023-09-18T08:07:15;47.28;;;41.08;;
59970;SDS011;45825;45.434;9.116;2023-09-18T08:09:41;48.50;;;39.90;;
59970;SDS011;45825;45.434;9.116;2023-09-18T08:12:06;56.08;;;43.42;;
59970;SDS011;45825;45.434;9.116;2023-09-18T08:14:33;50.45;;;41.03;;
59970;SDS011;45825;45.434;9.116;2023-09-18T08:17:01;51.22;;;41.80;;
59970;SDS011;45825;45.434;9.116;2023-09-18T08:19:28;52.70;;;42.13;;
59970;SDS011;45825;45.434;9.116;2023-09-18T08:21:56;50.75;;;41.65;;
59970;SDS011;45825;45.434;9.116;2023-09-18T08:24:22;51.30;;;39.95;;
59970;SDS011;45825;45.434;9.116;2023-09-18T08:26:48;55.53;;;42.38;;
59970;SDS011;45825;45.434;9.116;2023-09-18T08:29:13;51.78;;;39.55;;
59970;SDS011;45825;45.434;9.116;2023-09-18T08:31:39;58.40;;;44.45;;
59970;SDS011;45825;45.434;9.116;2023-09-18T08:34:04;48.67;;;40.97;;
59970;SDS011;45825;45.434;9.116;2023-09-18T08:36:29;51.00;;;37.83;;
59970;SDS011;45825;45.434;9.116;2023-09-18T08:38:55;49.30;;;39.22;;
59970;SDS011;45825;45.434;9.116;2023-09-18T08:41:21;55.08;;;41.25;;
59970;SDS011;45825;45.434;9.116;2023-09-18T08:43:52;54.45;;;38.75;;
59970;SDS011;45825;45.434;9.116;2023-09-18T08:46:21;50.80;;;39.17;;
59970;SDS011;45825;45.434;9.116;2023-09-18T08:48:47;54.42;;;43.00;;
59970;SDS011;45825;45.434;9.116;2023-09-18T08:51:14;66.25;;;50.95;;
59970;SDS011;45825;45.434;9.116;2023-09-18T08:53:40;56.03;;;38.08;;
59970;SDS011;45825;45.434;9.116;2023-09-18T08:56:06;46.92;;;37.00;;
59970;SDS011;45825;45.434;9.116;2023-09-18T08:58:34;45.90;;;36.83;;
59970;SDS011;45825;45.434;9.116;2023-09-18T09:01:04;45.60;;;37.50;;
59970;SDS011;45825;45.434;9.116;2023-09-18T09:03:31;45.58;;;36.88;;
59970;SDS011;45825;45.434;9.116;2023-09-18T09:05:56;46.50;;;36.50;;
59970;SDS011;45825;45.434;9.116;2023-09-18T09:08:26;43.20;;;35.17;;
59970;SDS011;45825;45.434;9.116;2023-09-18T09:10:52;44.08;;;36.28;;
59970;SDS011;45825;45.434;9.116;2023-09-18T09:13:18;42.53;;;36.00;;
59970;SDS011;45825;45.434;9.116;2023-09-18T09:15:44;41.47;;;34.20;;
59970;SDS011;45825;45.434;9.116;2023-09-18T09:18:15;45.28;;;35.03;;
59970;SDS011;45825;45.434;9.116;2023-09-18T09:20:41;41.47;;;34.97;;
59970;SDS011;45825;45.434;9.116;2023-09-18T09:23:08;42.28;;;33.50;;
59970;SDS011;45825;45.434;9.116;2023-09-18T09:25:35;38.03;;;33.00;;
59970;SDS011;45825;45.434;9.116;2023-09-18T09:28:02;41.53;;;35.10;;
59970;SDS011;45825;45.434;9.116;2023-09-18T09:33:00;38.35;;;32.08;;
59970;SDS011;45825;45.434;9.116;2023-09-18T09:35:30;38.60;;;32.78;;
59970;SDS011;45825;45.434;9.116;2023-09-18T09:38:07;35.58;;;30.52;;
59970;SDS011;45825;45.434;9.116;2023-09-18T09:40:34;40.22;;;32.83;;
59970;SDS011;45825;45.434;9.116;2023-09-18T09:43:03;36.83;;;30.95;;
59970;SDS011;45825;45.434;9.116;2023-09-18T09:45:29;39.72;;;32.58;;
59970;SDS011;45825;45.434;9.116;2023-09-18T09:48:00;40.42;;;32.25;;
59970;SDS011;45825;45.434;9.116;2023-09-18T09:50:26;37.15;;;32.47;;
59970;SDS011;45825;45.434;9.116;2023-09-18T09:52:52;40.40;;;30.10;;
59970;SDS011;45825;45.434;9.116;2023-09-18T09:55:23;35.83;;;30.25;;
59970;SDS011;45825;45.434;9.116;2023-09-18T09:57:51;39.25;;;31.40;;
59970;SDS011;45825;45.434;9.116;2023-09-18T10:00:19;35.30;;;29.98;;
59970;SDS011;45825;45.434;9.116;2023-09-18T10:02:53;34.03;;;29.30;;
59970;SDS011;45825;45.434;9.116;2023-09-18T10:05:22;34.78;;;30.02;;
59970;SDS011;45825;45.434;9.116;2023-09-18T10:07:57;37.08;;;29.50;;
59970;SDS011;45825;45.434;9.116;2023-09-18T10:10:27;38.30;;;29.52;;
59970;SDS011;45825;45.434;9.116;2023-09-18T10:12:57;33.45;;;29.60;;
59970;SDS011;45825;45.434;9.116;2023-09-18T10:15:26;35.65;;;29.83;;
59970;SDS011;45825;45.434;9.116;2023-09-18T10:17:53;34.42;;;29.27;;
59970;SDS011;45825;45.434;9.116;2023-09-18T10:20:21;36.63;;;29.45;;
59970;SDS011;45825;45.434;9.116;2023-09-18T10:22:52;38.50;;;30.25;;
59970;SDS011;45825;45.434;9.116;2023-09-18T10:25:21;32.75;;;27.92;;
59970;SDS011;45825;45.434;9.116;2023-09-18T10:27:49;36.30;;;27.77;;
59970;SDS011;45825;45.434;9.116;2023-09-18T10:30:20;31.67;;;26.90;;
59970;SDS011;45825;45.434;9.116;2023-09-18T10:32:50;33.92;;;28.08;;
59970;SDS011;45825;45.434;9.116;2023-09-18T10:35:16;34.70;;;27.60;;
59970;SDS011;45825;45.434;9.116;2023-09-18T10:37:42;29.65;;;26.35;;
59970;SDS011;45825;45.434;9.116;2023-09-18T10:40:10;31.83;;;26.95;;
59970;SDS011;45825;45.434;9.116;2023-09-18T10:42:37;31.83;;;27.42;;
59970;SDS011;45825;45.434;9.116;2023-09-18T10:45:04;34.85;;;27.83;;
59970;SDS011;45825;45.434;9.116;2023-09-18T10:47:30;34.30;;;26.95;;
59970;SDS011;45825;45.434;9.116;2023-09-18T10:49:56;31.20;;;26.77;;
59970;SDS011;45825;45.434;9.116;2023-09-18T10:52:21;31.45;;;26.58;;
59970;SDS011;45825;45.434;9.116;2023-09-18T10:54:47;32.38;;;26.90;;
59970;SDS011;45825;45.434;9.116;2023-09-18T10:57:12;32.15;;;25.80;;
59970;SDS011;45825;45.434;9.116;2023-09-18T10:59:45;30.88;;;27.00;;
59970;SDS011;45825;45.434;9.116;2023-09-18T11:02:13;32.40;;;25.65;;
59970;SDS011;45825;45.434;9.116;2023-09-18T11:04:41;32.95;;;25.63;;
59970;SDS011;45825;45.434;9.116;2023-09-18T11:07:07;35.17;;;25.42;;
59970;SDS011;45825;45.434;9.116;2023-09-18T11:09:44;31.02;;;25.15;;
59970;SDS011;45825;45.434;9.116;2023-09-18T11:12:10;27.65;;;23.70;;
59970;SDS011;45825;45.434;9.116;2023-09-18T11:25:29;31.77;;;22.23;;
59970;SDS011;45825;45.434;9.116;2023-09-18T11:27:56;27.00;;;21.48;;
59970;SDS011;45825;45.434;9.116;2023-09-18T11:30:22;28.83;;;20.77;;
59970;SDS011;45825;45.434;9.116;2023-09-18T11:32:48;29.77;;;20.20;;
59970;SDS011;45825;45.434;9.116;2023-09-18T11:35:14;24.92;;;20.35;;
59970;SDS011;45825;45.434;9.116;2023-09-18T11:37:42;25.45;;;19.08;;
59970;SDS011;45825;45.434;9.116;2023-09-18T11:40:26;28.30;;;18.75;;
59970;SDS011;45825;45.434;9.116;2023-09-18T11:43:18;28.45;;;18.67;;
59970;SDS011;45825;45.434;9.116;2023-09-18T11:45:48;25.65;;;18.75;;
59970;SDS011;45825;45.434;9.116;2023-09-18T11:48:16;25.17;;;17.55;;
59970;SDS011;45825;45.434;9.116;2023-09-18T11:50:43;23.23;;;17.45;;
59970;SDS011;45825;45.434;9.116;2023-09-18T11:53:09;24.13;;;16.95;;
59970;SDS011;45825;45.434;9.116;2023-09-18T11:55:37;24.33;;;16.52;;
59970;SDS011;45825;45.434;9.116;2023-09-18T11:58:05;26.30;;;17.10;;
59970;SDS011;45825;45.434;9.116;2023-09-18T12:00:34;24.00;;;15.43;;
59970;SDS011;45825;45.434;9.116;2023-09-18T12:03:12;28.58;;;17.17;;
59970;SDS011;45825;45.434;9.116;2023-09-18T12:05:58;22.48;;;15.10;;
59970;SDS011;45825;45.434;9.116;2023-09-18T12:08:26;21.35;;;15.02;;
59970;SDS011;45825;45.434;9.116;2023-09-18T12:10:54;24.52;;;15.23;;
59970;SDS011;45825;45.434;9.116;2023-09-18T12:13:20;23.77;;;15.35;;
59970;SDS011;45825;45.434;9.116;2023-09-18T12:15:47;21.30;;;15.65;;
59970;SDS011;45825;45.434;9.116;2023-09-18T12:18:13;21.30;;;15.82;;
59970;SDS011;45825;45.434;9.116;2023-09-18T12:20:49;20.13;;;14.68;;
59970;SDS011;45825;45.434;9.116;2023-09-18T12:23:15;25.80;;;15.38;;
59970;SDS011;45825;45.434;9.116;2023-09-18T12:25:41;20.48;;;15.65;;
59970;SDS011;45825;45.434;9.116;2023-09-18T12:28:12;19.48;;;15.77;;
59970;SDS011;45825;45.434;9.116;2023-09-18T12:30:39;20.25;;;14.95;;
59970;SDS011;45825;45.434;9.116;2023-09-18T12:33:05;26.45;;;15.55;;
59970;SDS011;45825;45.434;9.116;2023-09-18T12:35:30;20.15;;;14.45;;
59970;SDS011;45825;45.434;9.116;2023-09-18T12:37:57;19.65;;;14.98;;
59970;SDS011;45825;45.434;9.116;2023-09-18T12:40:24;21.88;;;14.18;;
59970;SDS011;45825;45.434;9.116;2023-09-18T12:42:51;22.13;;;15.35;;
59970;SDS011;45825;45.434;9.116;2023-09-18T12:45:18;19.58;;;13.50;;
59970;SDS011;45825;45.434;9.116;2023-09-18T12:47:45;22.05;;;13.82;;
59970;SDS011;45825;45.434;9.116;2023-09-18T12:50:13;24.50;;;14.27;;
59970;SDS011;45825;45.434;9.116;2023-09-18T12:52:39;22.27;;;13.90;;
59970;SDS011;45825;45.434;9.116;2023-09-18T12:55:05;22.58;;;14.68;;
59970;SDS011;45825;45.434;9.116;2023-09-18T12:57:31;21.98;;;15.15;;
59970;SDS011;45825;45.434;9.116;2023-09-18T12:59:57;21.10;;;13.85;;
59970;SDS011;45825;45.434;9.116;2023-09-18T13:02:22;24.83;;;15.82;;
59970;SDS011;45825;45.434;9.116;2023-09-18T13:04:53;21.20;;;15.30;;
59970;SDS011;45825;45.434;9.116;2023-09-18T13:07:19;21.73;;;14.02;;
59970;SDS011;45825;45.434;9.116;2023-09-18T13:09:59;25.58;;;15.93;;
59970;SDS011;45825;45.434;9.116;2023-09-18T13:12:45;26.67;;;16.38;;
59970;SDS011;45825;45.434;9.116;2023-09-18T13:17:38;25.05;;;17.95;;
59970;SDS011;45825;45.434;9.116;2023-09-18T13:20:14;25.70;;;19.35;;
59970;SDS011;45825;45.434;9.116;2023-09-18T13:22:41;23.48;;;18.25;;
59970;SDS011;45825;45.434;9.116;2023-09-18T13:25:10;27.98;;;19.45;;
59970;SDS011;45825;45.434;9.116;2023-09-18T13:27:36;29.58;;;21.45;;
59970;SDS011;45825;45.434;9.116;2023-09-18T13:30:02;27.13;;;19.65;;
59970;SDS011;45825;45.434;9.116;2023-09-18T13:32:41;26.90;;;19.92;;
59970;SDS011;45825;45.434;9.116;2023-09-18T13:35:06;31.58;;;22.27;;
59970;SDS011;45825;45.434;9.116;2023-09-18T13:37:32;28.90;;;20.27;;
59970;SDS011;45825;45.434;9.116;2023-09-18T13:39:58;33.38;;;20.90;;
59970;SDS011;45825;45.434;9.116;2023-09-18T13:42:26;27.30;;;19.38;;
59970;SDS011;45825;45.434;9.116;2023-09-18T13:44:54;30.98;;;22.75;;
59970;SDS011;45825;45.434;9.116;2023-09-18T13:47:19;31.02;;;22.02;;
59970;SDS011;45825;45.434;9.116;2023-09-18T13:49:45;32.47;;;22.00;;
59970;SDS011;45825;45.434;9.116;2023-09-18T13:52:11;31.10;;;21.70;;
59970;SDS011;45825;45.434;9.116;2023-09-18T13:54:37;24.33;;;18.95;;
59970;SDS011;45825;45.434;9.116;2023-09-18T13:57:02;29.48;;;22.80;;
59970;SDS011;45825;45.434;9.116;2023-09-18T13:59:30;27.50;;;22.85;;
59970;SDS011;45825;45.434;9.116;2023-09-18T14:01:55;30.83;;;22.73;;
59970;SDS011;45825;45.434;9.116;2023-09-18T14:04:22;31.10;;;23.20;;
59970;SDS011;45825;45.434;9.116;2023-09-18T14:06:47;31.15;;;24.50;;
59970;SDS011;45825;45.434;9.116;2023-09-18T14:09:13;35.80;;;25.15;;
59970;SDS011;45825;45.434;9.116;2023-09-18T14:11:38;30.13;;;24.15;;
59970;SDS011;45825;45.434;9.116;2023-09-18T14:14:03;33.15;;;24.00;;
59970;SDS011;45825;45.434;9.116;2023-09-18T14:16:30;35.65;;;25.23;;
59970;SDS011;45825;45.434;9.116;2023-09-18T14:18:58;34.63;;;25.92;;
59970;SDS011;45825;45.434;9.116;2023-09-18T14:21:24;34.63;;;25.27;;
59970;SDS011;45825;45.434;9.116;2023-09-18T14:23:49;32.20;;;25.55;;
59970;SDS011;45825;45.434;9.116;2023-09-18T14:26:15;32.13;;;24.80;;
59970;SDS011;45825;45.434;9.116;2023-09-18T14:28:40;33.50;;;23.88;;
59970;SDS011;45825;45.434;9.116;2023-09-18T14:31:05;40.65;;;26.70;;
59970;SDS011;45825;45.434;9.116;2023-09-18T14:33:31;35.92;;;25.40;;
59970;SDS011;45825;45.434;9.116;2023-09-18T14:35:56;37.33;;;24.52;;
59970;SDS011;45825;45.434;9.116;2023-09-18T14:38:21;35.80;;;23.35;;
59970;SDS011;45825;45.434;9.116;2023-09-18T14:40:47;33.08;;;23.70;;
59970;SDS011;45825;45.434;9.116;2023-09-18T14:43:12;35.35;;;23.15;;